Grand Valley, PA (16420)

7:05 PM EST on December 25, 2014 (GMT -0500)
Brokenstraw Airport | Change Station
CLOSE
Current Station
Personal Weather Station
Location: Pittsfield, PA
Elevation: 1235 ft
Nearby Weather Stations

Elev 1235 ft 41.83 °N, 79.36 °W | Updated 33 seconds ago

Overcast
Overcast
36.7 °F
Feels Like 34 °F
N
4.0
Wind Variable Wind from WSW
Gusts 11.0 mph

Today
High -- | Low -- °F
--% Chance of Precip.
Yesterday
High -- | Low -- °F
Precip. -- in
7:43 AM 4:52 PM
Waxing Crescent, 20% visible
Pressure 30.07 in
Visibility 10.0 miles
Clouds Scattered Clouds 1900 ft
Overcast 2700 ft
Windchill 34 °F
Dew Point 31 °F
Humidity 79%
Rainfall 0.05 in
Snow Depth Not available.
UV 0 out of 12
Pollen .10 out of 12
Air Quality Not available.
Flu Activity Not available.
METAR KJHW 252355Z 26013G18KT 10SM SCT019 OVC027 02/M03 A3007 RMK AO1 10020 20020 401100010 52027

More Conditions Fewer Conditions

Pressure 30.07 in
Visibility 10.0 miles
Clouds Scattered Clouds 1900 ft
Overcast 2700 ft
Windchill 34 °F
Dew Point 31 °F
Humidity 79%
Rainfall 0.05 in
Snow Depth Not available.
UV 0 out of 12
Pollen .10 out of 12
Air Quality Not available.
Flu Activity Not available.
METAR KJHW 252355Z 26013G18KT 10SM SCT019 OVC027 02/M03 A3007 RMK AO1 10020 20020 401100010 52027

More Conditions Fewer Conditions

10-Day Weather Forecast

Almanac

Astronomy

Dec. 25, 2014 Rise Set
Actual Time
Civil Twilight
Nautical Twilight
Astronomical Twilight
Moon
Length of Visible Light
Length of Day
Tomorrow will be .
, % of the Moon is Illuminated

Today's Extremes

State Highs State Lows

Community

WunderPhotos

Upload Photos

1,780,468 photos uploaded!

WunderBlogs® & News

Nearby

Air Quality

  Air Quality AQ Index Pollutant
Not available.

Snow Depth

Station Depth Elevation

Earthquake Activity

City Distance Mag. Time & Date
Minimum magnitude displayed is 2.5.

Coastal Water Temperatures

Place Temperature

Nearby Weather Stations